Rio Fortuna, Brazil
Current Conditions -  °F | °C
As of 6:00 AM on Thursday 18 Dec 2014 (Local Time) from SBCM Reporting Station
Broken Clouds Broken Clouds  
Wind Chill: 73°   Ceiling: 2000
Heat Index: 73°   Visibility: 6mi
Dew Point: 72°   Wind: 1mph
Humidity: 94%   Direction: 350°N
Pressure: 29.8"   Gusts: NA
Location:  28.14°S, 49.1°W
Report Text: SBCM 180800Z 35001KT 9999 SCT015 BKN020 23/22 Q1009
Loading
Personal Weather Stations






























Interactive Weather Map New forecast layout! Learn more

10-Day Weather Forecast

Advertisements
Track Severe Weather on mobile